Brainerd Lakes Regional Airport
KBRD : now visible

Airfield :











YOU CAN JOIN US ON...

 
LOGIN :

Register | Disclaimer

   EN    FR    IT 

 









Legend :    VFR   Marginal VFR   IFR   Intensive IFR   Very Intensive IFR
Visi :
Ceiling :
>= 8 km
>= 3000ft
5 to 8 km
1000 to 3000 ft
1500m to 5 km
500 to 1000 ft
800 to 1500m
200 to 500 ft
< 800m
< 200 ft
Symbols :   Thunderstorms  Fog  Heavy snow  Heavy precipitations  Wind > 20 kt






- Airport Elevation : 1232 ft


KBRD - Brainerd Lakes Regional

CURRENT METAR :
  • 031223Z AUTO 19003KT 3SM HZ CLR 15/12 A3008 RMK AO2 T01500122

EXPIRED METARs :
  • 031213Z AUTO 17005KT 2 1/2SM BR CLR 14/12 A3008 RMK AO2 T01440122
  • 031153Z AUTO 22003KT 3SM BR FEW080 14/12 A3008 RMK AO2 SLP183 T01440122 10156 20128 53000
  • 031120Z AUTO 19003KT 2 1/2SM BR FEW080 14/12 A3008 RMK AO2 T01390117
  • 031053Z AUTO 19005KT 4SM HZ SCT070 BKN090 15/12 A3008 RMK AO2 SLP181 T01500117
  • 030953Z AUTO 19004KT 4SM HZ OVC085 14/11 A3007 RMK AO2 SLP181 T01390111

TAF KBRD
Valid from the 03 at 12:00 until the 04 at 12:00 UTC


031137Z 0312/0412 VRB04KT 5SM FU BR FEW090 SCT120
TEMPO 0312/0313 2SM BR
FM040700 VRB04KT P6SM FEW100 SCT250
KZMP FIR / North America



MET'MAP, your aeronautical weather chart ! - Copyright ORBIFLY December 2007 - Disclaimer

ORBIFLY MET'MAP TEAM :

Programming & Development : Alexandra Zaïnal
Concept & original design : Baudouin d'Aumeries
Assistance for programming : Marc-Olivier Méhu
Technical & hardware support : Manuel Goepfert

Contact : metmap@orbifly.com




SOURCES & CREDITS :

   NOAA       Earth
Advisory